Terminal Aerodrome Forecast
Issued by NWS Buffalo, NY

Home | Current Version | Previous Version | Text Only | Print | Product List | Glossary On
Versions: 1 2 3 4 5 6 7 8 9 10 11 12 13 14 15 16 17 18 19 20 21 22 23 24 25 26 27 28 29 30 31
000
FTUS41 KBUF 272300
TAFART
TAF
KART 272329Z 2800/2824 24010KT 1 1/2SM -SHSN BKN018 BKN025 OVC035
     FM280200 24007KT P6SM VCSH SCT040
     FM280400 24006KT P6SM SCT250
     FM281100 20006KT P6SM SCT025 SCT250
     FM282200 22009KT P6SM SCT250=

USA.gov is the U.S. government's official web portal to all federal, state and local government web resources and services.